createdAt,value
2018-05-03T00:00:02.918Z,85.20
2018-05-03T00:02:29.676Z,85.30
2018-05-03T00:04:55.914Z,84.50
2018-05-03T00:07:22.122Z,84.50
2018-05-03T00:09:48.385Z,84.70
2018-05-03T00:12:14.602Z,85.00
2018-05-03T00:14:40.906Z,84.70
2018-05-03T00:17:08.418Z,85.00
2018-05-03T00:19:34.621Z,85.00
2018-05-03T00:22:00.826Z,85.40
2018-05-03T00:24:27.809Z,84.70
2018-05-03T00:26:54.026Z,84.80
2018-05-03T00:29:21.409Z,85.10
2018-05-03T00:31:47.628Z,85.20
2018-05-03T00:34:13.834Z,85.70
2018-05-03T00:36:41.629Z,85.40
2018-05-03T00:39:08.309Z,86.70
2018-05-03T00:41:34.546Z,85.30
2018-05-03T00:44:01.556Z,86.00
2018-05-03T00:46:28.937Z,84.20
2018-05-03T00:48:55.647Z,84.10
2018-05-03T00:51:23.035Z,83.80
2018-05-03T00:53:49.249Z,83.80
2018-05-03T00:56:16.713Z,84.90
2018-05-03T00:58:43.673Z,84.70
2018-05-03T01:01:09.913Z,84.70
2018-05-03T01:03:36.843Z,85.10
2018-05-03T01:06:03.809Z,84.70
2018-05-03T01:08:30.041Z,84.70
2018-05-03T01:10:56.293Z,84.40
2018-05-03T01:13:22.497Z,85.20
2018-05-03T01:15:49.905Z,84.80
2018-05-03T01:18:16.129Z,84.80
2018-05-03T01:20:42.375Z,85.20
2018-05-03T01:23:08.604Z,85.80
2018-05-03T01:25:35.713Z,85.20
2018-05-03T01:28:18.004Z,86.60
2018-05-03T01:30:44.212Z,86.70
2018-05-03T01:33:10.436Z,86.00
2018-05-03T01:35:49.044Z,84.90
2018-05-03T01:38:15.697Z,83.90
2018-05-03T01:40:42.697Z,84.30
2018-05-03T01:43:10.364Z,84.70
2018-05-03T01:45:37.825Z,83.90
2018-05-03T01:48:05.273Z,84.40
2018-05-03T01:50:32.703Z,84.60
2018-05-03T01:52:58.917Z,84.70
2018-05-03T01:55:25.657Z,84.10
2018-05-03T01:57:51.877Z,84.70
2018-05-03T02:00:18.088Z,84.30
2018-05-03T02:02:45.660Z,85.30
2018-05-03T02:05:12.634Z,85.10
2018-05-03T02:07:38.849Z,85.10
2018-05-03T02:10:05.854Z,84.00
2018-05-03T02:12:32.636Z,84.00
2018-05-03T02:14:59.722Z,84.00
2018-05-03T02:17:26.338Z,84.10
2018-05-03T02:19:53.308Z,86.00
2018-05-03T02:22:19.548Z,86.00
2018-05-03T02:24:46.514Z,85.30
2018-05-03T02:27:12.741Z,85.20
2018-05-03T02:29:38.963Z,85.10
2018-05-03T02:32:05.234Z,85.80
2018-05-03T02:34:31.933Z,85.80
2018-05-03T02:36:58.154Z,85.60
2018-05-03T02:39:25.469Z,86.30
2018-05-03T02:41:52.370Z,86.30
2018-05-03T02:44:19.954Z,85.60
2018-05-03T02:46:46.187Z,85.70
2018-05-03T02:49:12.862Z,85.70
2018-05-03T02:51:39.376Z,85.40
2018-05-03T02:54:05.595Z,85.50
2018-05-03T02:56:32.329Z,85.80
2018-05-03T02:59:12.348Z,85.80
2018-05-03T03:01:54.009Z,85.80
2018-05-03T03:04:41.032Z,85.80
2018-05-03T03:10:39.248Z,87.00
2018-05-03T03:13:34.694Z,86.90
2018-05-03T03:16:19.395Z,86.70
2018-05-03T03:19:04.938Z,86.40
2018-05-03T03:21:50.456Z,86.50
2018-05-03T03:24:35.352Z,87.70
2018-05-03T03:27:20.348Z,87.70
2018-05-03T03:29:58.784Z,86.30
2018-05-03T03:32:37.704Z,87.00
2018-05-03T03:35:25.552Z,87.30
2018-05-03T03:38:10.890Z,87.30
2018-05-03T03:40:50.701Z,88.20
2018-05-03T03:43:29.268Z,88.10
2018-05-03T03:45:55.821Z,88.70
2018-05-03T03:48:22.474Z,89.80
2018-05-03T03:50:49.866Z,88.50
2018-05-03T03:53:16.571Z,88.20
2018-05-03T03:55:43.497Z,87.80
2018-05-03T03:58:10.457Z,88.20
2018-05-03T04:00:36.701Z,88.20
2018-05-03T04:03:03.370Z,88.60
2018-05-03T04:05:29.593Z,88.50
2018-05-03T04:07:56.205Z,88.90
2018-05-03T04:10:23.157Z,88.80
2018-05-03T04:12:49.373Z,89.00
2018-05-03T04:15:16.354Z,87.70
2018-05-03T04:17:55.107Z,87.70
2018-05-03T04:20:39.290Z,88.20
2018-05-03T04:23:13.362Z,89.10
2018-05-03T04:25:52.072Z,89.00
2018-05-03T04:28:18.283Z,87.40
2018-05-03T04:30:45.000Z,88.50
2018-05-03T04:33:11.972Z,87.60
2018-05-03T04:35:38.868Z,87.60
2018-05-03T04:38:05.570Z,88.60
2018-05-03T04:40:31.792Z,91.10
2018-05-03T04:42:58.754Z,90.40
2018-05-03T04:45:25.336Z,90.50
2018-05-03T04:47:52.120Z,89.40
2018-05-03T04:50:19.498Z,88.70
2018-05-03T04:52:45.713Z,88.80
2018-05-03T04:55:13.180Z,90.50
2018-05-03T04:57:40.146Z,90.20
2018-05-03T05:00:06.648Z,90.70
2018-05-03T05:02:33.626Z,87.70
2018-05-03T05:05:01.035Z,87.40
2018-05-03T05:07:27.251Z,87.40
2018-05-03T05:09:53.457Z,87.90
2018-05-03T05:12:20.475Z,88.40
2018-05-03T05:14:46.735Z,88.60
2018-05-03T05:17:15.704Z,89.30
2018-05-03T05:19:41.957Z,89.30
2018-05-03T05:22:08.165Z,88.50
2018-05-03T05:24:49.342Z,87.90
2018-05-03T05:27:15.608Z,88.80
2018-05-03T05:29:42.596Z,87.80
2018-05-03T05:32:09.620Z,87.80
2018-05-03T05:34:37.041Z,86.80
2018-05-03T05:37:04.038Z,86.80
2018-05-03T05:39:30.262Z,86.70
2018-05-03T05:41:58.212Z,86.50
2018-05-03T05:44:25.129Z,86.60
2018-05-03T05:46:52.129Z,86.30
2018-05-03T05:49:19.092Z,86.10
2018-05-03T05:51:46.486Z,86.20
2018-05-03T05:54:12.708Z,86.20
2018-05-03T05:56:39.480Z,85.70
2018-05-03T05:59:05.692Z,85.10
2018-05-03T06:01:32.710Z,84.80
2018-05-03T06:04:00.317Z,84.40
2018-05-03T06:06:26.561Z,84.40
2018-05-03T06:08:52.787Z,84.10
2018-05-03T06:11:19.037Z,84.20
2018-05-03T06:13:46.352Z,83.90
2018-05-03T06:16:12.576Z,81.80
2018-05-03T06:18:39.528Z,82.00
2018-05-03T06:21:06.507Z,81.90
2018-05-03T06:23:32.740Z,82.60
2018-05-03T06:25:59.117Z,82.20
2018-05-03T06:28:25.312Z,81.10
2018-05-03T06:30:52.252Z,80.30
2018-05-03T06:33:18.978Z,79.80
2018-05-03T06:35:45.953Z,78.50
2018-05-03T06:38:12.176Z,78.40
2018-05-03T06:40:38.760Z,77.80
2018-05-03T06:43:04.977Z,78.30
2018-05-03T06:45:31.626Z,77.50
2018-05-03T06:47:58.268Z,77.30
2018-05-03T06:50:25.077Z,77.20
2018-05-03T06:52:52.035Z,76.10
2018-05-03T06:55:18.955Z,75.90
2018-05-03T06:57:45.461Z,73.90
2018-05-03T07:00:12.044Z,72.00
2018-05-03T07:02:39.008Z,72.20
2018-05-03T07:05:05.979Z,69.90
2018-05-03T07:07:32.228Z,69.90
2018-05-03T07:09:58.460Z,69.10
2018-05-03T07:12:25.297Z,69.40
2018-05-03T07:14:51.521Z,70.00
2018-05-03T07:17:17.739Z,67.60
2018-05-03T07:19:44.745Z,67.50
2018-05-03T07:22:10.960Z,67.20
2018-05-03T07:24:37.271Z,67.60
2018-05-03T07:27:03.841Z,68.20
2018-05-03T07:29:30.472Z,66.80
2018-05-03T07:31:57.104Z,66.40
2018-05-03T07:34:23.360Z,64.90
2018-05-03T07:36:50.100Z,65.30
2018-05-03T07:39:16.325Z,63.90
2018-05-03T07:41:42.553Z,65.50
2018-05-03T07:44:09.385Z,63.30
2018-05-03T07:46:36.358Z,61.40
2018-05-03T07:49:03.232Z,61.60
2018-05-03T07:51:31.052Z,63.50
2018-05-03T07:53:58.009Z,62.00
2018-05-03T07:56:25.427Z,61.90
2018-05-03T07:58:52.056Z,62.10
2018-05-03T08:01:18.280Z,60.10
2018-05-03T08:03:44.489Z,59.60
2018-05-03T08:06:10.748Z,59.20
2018-05-03T08:08:36.966Z,58.90
2018-05-03T08:11:04.142Z,58.20
2018-05-03T08:13:30.356Z,59.60
2018-05-03T08:15:56.588Z,57.40
2018-05-03T08:18:22.884Z,56.90
2018-05-03T08:20:49.084Z,57.20
2018-05-03T08:23:15.376Z,57.20
2018-05-03T08:25:42.880Z,57.00
2018-05-03T08:28:09.817Z,57.00
2018-05-03T08:30:36.054Z,57.00
2018-05-03T08:33:02.318Z,58.00
2018-05-03T08:35:28.585Z,57.40
2018-05-03T08:37:55.544Z,56.70
2018-05-03T08:40:22.619Z,56.90
2018-05-03T08:42:48.854Z,56.80
2018-05-03T08:45:15.772Z,57.10
2018-05-03T08:47:43.081Z,56.20
2018-05-03T08:50:09.720Z,56.00
2018-05-03T08:52:36.379Z,56.20
2018-05-03T08:55:03.346Z,55.50
2018-05-03T08:57:30.085Z,55.00
2018-05-03T08:59:56.333Z,55.20
2018-05-03T09:02:23.295Z,54.40
2018-05-03T09:04:50.268Z,54.80
2018-05-03T09:07:17.216Z,53.90
2018-05-03T09:09:43.436Z,54.90
2018-05-03T09:12:10.385Z,55.50
2018-05-03T09:14:37.956Z,55.40
2018-05-03T09:17:04.932Z,55.20
2018-05-03T09:19:31.169Z,55.20
2018-05-03T09:21:58.192Z,54.40
2018-05-03T09:24:25.712Z,55.30
2018-05-03T09:26:52.316Z,55.00
2018-05-03T09:29:18.540Z,54.90
2018-05-03T09:31:45.496Z,54.80
2018-05-03T09:34:11.744Z,54.60
2018-05-03T09:36:37.959Z,54.60
2018-05-03T09:39:05.392Z,53.70
2018-05-03T09:41:31.624Z,53.70
2018-05-03T09:43:59.049Z,54.60
2018-05-03T09:46:25.810Z,54.60
2018-05-03T09:48:52.641Z,54.30
2018-05-03T09:51:19.384Z,53.40
2018-05-03T09:53:59.595Z,53.20
2018-05-03T09:56:27.314Z,54.60
2018-05-03T09:58:53.541Z,54.60
2018-05-03T10:01:19.792Z,53.70
2018-05-03T10:03:46.028Z,53.40
2018-05-03T10:06:12.675Z,52.80
2018-05-03T10:08:38.906Z,53.00
2018-05-03T10:11:05.131Z,53.50
2018-05-03T10:13:31.372Z,52.10
2018-05-03T10:15:57.597Z,52.00
2018-05-03T10:18:23.906Z,52.30
2018-05-03T10:20:51.147Z,52.10
2018-05-03T10:23:18.664Z,51.80
2018-05-03T10:25:44.872Z,51.90
2018-05-03T10:28:11.080Z,50.80
2018-05-03T10:30:38.057Z,51.40
2018-05-03T10:33:04.288Z,51.30
2018-05-03T10:35:30.572Z,51.40
2018-05-03T10:37:57.562Z,50.80
2018-05-03T10:40:23.780Z,50.90
2018-05-03T10:42:51.856Z,52.00
2018-05-03T10:45:19.262Z,51.10
2018-05-03T10:47:45.753Z,51.00
2018-05-03T10:50:13.265Z,50.50
2018-05-03T10:52:40.023Z,50.40
2018-05-03T10:55:06.812Z,50.60
2018-05-03T10:57:33.816Z,50.90
2018-05-03T11:00:00.919Z,50.90
2018-05-03T11:02:28.818Z,51.10
2018-05-03T11:04:55.152Z,51.10
2018-05-03T11:07:21.399Z,51.00
2018-05-03T11:09:47.680Z,50.60
2018-05-03T11:12:13.906Z,51.60
2018-05-03T11:14:40.210Z,50.40
2018-05-03T11:17:06.915Z,49.00
2018-05-03T11:19:34.690Z,49.00
2018-05-03T11:22:01.547Z,48.90
2018-05-03T11:24:27.775Z,49.10
2018-05-03T11:26:53.992Z,49.10
2018-05-03T11:29:20.974Z,48.70
2018-05-03T11:31:47.202Z,48.70
2018-05-03T11:34:13.522Z,49.80
2018-05-03T11:36:40.857Z,49.30
2018-05-03T11:39:07.036Z,49.30
2018-05-03T11:41:33.705Z,49.90
2018-05-03T11:44:00.617Z,50.10
2018-05-03T11:46:27.365Z,50.40
2018-05-03T11:48:54.010Z,48.90
2018-05-03T11:51:21.533Z,49.60
2018-05-03T11:53:48.485Z,49.00
2018-05-03T11:56:15.088Z,49.00
2018-05-03T11:58:41.697Z,49.40
2018-05-03T12:01:09.075Z,48.10
2018-05-03T12:03:35.293Z,48.10
2018-05-03T12:06:02.717Z,48.00
2018-05-03T12:08:28.899Z,48.10
2018-05-03T12:10:55.121Z,48.90
2018-05-03T12:13:21.409Z,48.90
2018-05-03T12:15:48.021Z,49.10
2018-05-03T12:18:14.738Z,48.60
2018-05-03T12:20:41.700Z,48.80
2018-05-03T12:23:07.897Z,48.60
2018-05-03T12:25:34.169Z,48.50
2018-05-03T12:28:00.397Z,48.90
2018-05-03T12:30:26.750Z,49.00
2018-05-03T12:32:53.708Z,49.00
2018-05-03T12:35:19.940Z,48.90
2018-05-03T12:37:46.757Z,49.40
2018-05-03T12:40:13.727Z,49.20
2018-05-03T12:42:39.948Z,49.20
2018-05-03T12:45:07.513Z,49.30
2018-05-03T12:47:34.960Z,49.60
2018-05-03T12:50:01.930Z,48.90
2018-05-03T12:52:28.661Z,48.90
2018-05-03T12:54:55.961Z,49.70
2018-05-03T12:57:22.761Z,49.60
2018-05-03T12:59:49.737Z,50.10
2018-05-03T13:02:15.964Z,50.10
2018-05-03T13:04:42.217Z,49.80
2018-05-03T13:07:08.453Z,50.60
2018-05-03T13:09:34.762Z,51.20
2018-05-03T13:12:02.525Z,51.60
2018-05-03T13:14:30.098Z,51.30
2018-05-03T13:16:57.559Z,51.30
2018-05-03T13:19:24.513Z,51.00
2018-05-03T13:21:51.479Z,51.60
2018-05-03T13:24:17.723Z,51.60
2018-05-03T13:26:43.938Z,51.60
2018-05-03T13:29:10.241Z,51.50
2018-05-03T13:31:36.490Z,52.10
2018-05-03T13:34:03.437Z,51.80
2018-05-03T13:36:30.402Z,51.80
2018-05-03T13:38:58.013Z,51.60
2018-05-03T13:41:24.283Z,51.60
2018-05-03T13:43:51.341Z,51.30
2018-05-03T13:46:18.313Z,52.10
2018-05-03T13:48:45.042Z,52.20
2018-05-03T13:51:13.024Z,52.50
2018-05-03T13:53:39.992Z,52.40
2018-05-03T13:56:06.722Z,52.40
2018-05-03T13:58:33.706Z,52.30
2018-05-03T14:00:59.917Z,52.30
2018-05-03T14:03:26.162Z,52.60
2018-05-03T14:05:52.387Z,52.60
2018-05-03T14:08:18.675Z,52.20
2018-05-03T14:10:45.354Z,52.40
2018-05-03T14:13:12.892Z,52.40
2018-05-03T14:15:39.864Z,52.90
2018-05-03T14:18:06.857Z,52.00
2018-05-03T14:20:33.130Z,52.00
2018-05-03T14:23:00.128Z,52.70
2018-05-03T14:25:26.429Z,52.70
2018-05-03T14:27:53.427Z,52.50
2018-05-03T14:30:19.677Z,52.50
2018-05-03T14:32:45.899Z,52.80
2018-05-03T14:35:12.168Z,53.30
2018-05-03T14:37:38.520Z,53.50
2018-05-03T14:40:06.096Z,53.50
2018-05-03T14:42:33.405Z,54.40
2018-05-03T14:45:00.404Z,54.30
2018-05-03T14:47:27.792Z,55.10
2018-05-03T14:49:54.732Z,54.90
2018-05-03T14:52:21.415Z,55.50
2018-05-03T14:54:48.300Z,55.00
2018-05-03T14:57:15.614Z,56.10
2018-05-03T14:59:41.812Z,56.10
2018-05-03T15:02:08.042Z,57.30
2018-05-03T15:04:34.310Z,61.60
2018-05-03T15:07:01.116Z,61.60
2018-05-03T15:09:28.681Z,69.00
2018-05-03T15:11:56.092Z,71.50
2018-05-03T15:14:22.370Z,71.90
2018-05-03T15:16:49.859Z,74.90
2018-05-03T15:19:16.077Z,74.00
2018-05-03T15:21:43.021Z,74.10
2018-05-03T15:24:10.068Z,77.10
2018-05-03T15:26:36.249Z,77.10
2018-05-03T15:29:02.562Z,76.40
2018-05-03T15:31:29.094Z,76.90
2018-05-03T15:33:56.042Z,73.40
2018-05-03T15:36:23.597Z,76.10
2018-05-03T15:38:51.082Z,78.80
2018-05-03T15:41:17.303Z,79.10
2018-05-03T15:43:44.257Z,77.40
2018-05-03T15:46:11.589Z,76.70
2018-05-03T15:48:38.189Z,76.80
2018-05-03T15:51:04.975Z,78.80
2018-05-03T15:53:31.199Z,80.90
2018-05-03T15:55:57.893Z,78.90
2018-05-03T15:58:24.715Z,80.30
2018-05-03T16:00:51.754Z,80.40
2018-05-03T16:03:17.994Z,80.80
2018-05-03T16:05:44.664Z,81.90
2018-05-03T16:08:11.340Z,80.30
2018-05-03T16:10:37.949Z,81.70
2018-05-03T16:13:04.213Z,81.80
2018-05-03T16:15:30.443Z,82.40
2018-05-03T16:17:56.706Z,82.20
2018-05-03T16:20:22.974Z,84.80
2018-05-03T16:22:49.268Z,84.80
2018-05-03T16:25:15.513Z,84.00
2018-05-03T16:27:41.777Z,85.40
2018-05-03T16:30:09.210Z,83.40
2018-05-03T16:32:35.420Z,83.50
2018-05-03T16:35:01.677Z,84.60
2018-05-03T16:37:28.297Z,86.30
2018-05-03T16:39:54.524Z,84.60
2018-05-03T16:42:21.245Z,84.10
2018-05-03T16:44:47.826Z,84.60
2018-05-03T16:47:14.625Z,88.10
2018-05-03T16:49:41.586Z,84.10
2018-05-03T16:52:08.314Z,84.20
2018-05-03T16:54:36.092Z,84.20
2018-05-03T16:57:03.085Z,85.00
2018-05-03T16:59:30.731Z,85.20
2018-05-03T17:01:56.946Z,85.80
2018-05-03T17:04:24.514Z,89.00
2018-05-03T17:06:51.284Z,88.80
2018-05-03T17:09:17.507Z,90.40
2018-05-03T17:11:43.727Z,88.70
2018-05-03T17:14:11.182Z,88.80
2018-05-03T17:16:38.745Z,88.90
2018-05-03T17:19:05.711Z,88.10
2018-05-03T17:21:31.939Z,88.20
2018-05-03T17:23:58.924Z,87.70
2018-05-03T17:26:25.140Z,88.10
2018-05-03T17:28:51.458Z,88.80
2018-05-03T17:31:18.437Z,88.80
2018-05-03T17:33:45.441Z,88.90
2018-05-03T17:36:11.597Z,89.50
2018-05-03T17:38:37.822Z,90.90
2018-05-03T17:41:05.207Z,94.40
2018-05-03T17:43:32.129Z,94.30
2018-05-03T17:45:59.545Z,94.10
2018-05-03T17:48:26.069Z,94.50
2018-05-03T17:50:52.306Z,94.60
2018-05-03T17:53:18.849Z,92.00
2018-05-03T17:55:45.560Z,90.90
2018-05-03T17:58:12.513Z,91.60
2018-05-03T18:00:39.979Z,94.40
2018-05-03T18:03:06.810Z,94.50
2018-05-03T18:05:34.964Z,90.80
2018-05-03T18:08:01.199Z,90.70
2018-05-03T18:10:27.454Z,94.70
2018-05-03T18:12:55.243Z,93.30
2018-05-03T18:15:21.965Z,93.40
2018-05-03T18:17:48.817Z,93.20
2018-05-03T18:20:16.411Z,93.90
2018-05-03T18:22:42.627Z,94.20
2018-05-03T18:25:10.054Z,91.50
2018-05-03T18:27:36.274Z,91.60
2018-05-03T18:30:02.590Z,90.50
2018-05-03T18:32:29.266Z,92.70
2018-05-03T18:34:55.482Z,92.30
2018-05-03T18:37:22.317Z,92.50
2018-05-03T18:39:48.553Z,93.40
2018-05-03T18:42:14.782Z,93.60
2018-05-03T18:44:41.467Z,95.80
2018-05-03T18:47:08.088Z,93.00
2018-05-03T18:49:34.684Z,93.10
2018-05-03T18:52:02.178Z,91.40
2018-05-03T18:54:28.866Z,91.40
2018-05-03T18:56:55.094Z,93.10
2018-05-03T18:59:21.717Z,92.80
2018-05-03T19:01:48.730Z,93.40
2018-05-03T19:04:15.170Z,94.50
2018-05-03T19:06:41.499Z,95.70
2018-05-03T19:09:07.899Z,95.40
2018-05-03T19:11:34.202Z,94.80
2018-05-03T19:14:01.888Z,96.70
2018-05-03T19:16:28.259Z,96.80
2018-05-03T19:18:55.451Z,98.10
2018-05-03T19:21:21.894Z,98.30
2018-05-03T19:23:49.482Z,96.10
2018-05-03T19:26:17.101Z,95.60
2018-05-03T19:28:44.086Z,95.40
2018-05-03T19:31:10.595Z,95.50
2018-05-03T19:33:37.108Z,96.00
2018-05-03T19:36:04.533Z,97.60
2018-05-03T19:38:31.502Z,97.40
2018-05-03T19:40:58.385Z,96.60
2018-05-03T19:43:26.239Z,95.50
2018-05-03T19:45:53.648Z,95.60
2018-05-03T19:48:21.120Z,94.80
2018-05-03T19:50:47.442Z,95.00
2018-05-03T19:53:14.406Z,95.40
2018-05-03T19:55:41.165Z,97.10
2018-05-03T19:58:08.090Z,97.20
2018-05-03T20:00:34.687Z,94.80
2018-05-03T20:03:00.928Z,96.50
2018-05-03T20:05:27.896Z,98.20
2018-05-03T20:07:54.896Z,98.20
2018-05-03T20:10:21.116Z,98.20
2018-05-03T20:12:47.919Z,97.40
2018-05-03T20:15:15.348Z,98.00
2018-05-03T20:17:41.652Z,98.20
2018-05-03T20:20:07.898Z,97.50
2018-05-03T20:22:34.145Z,96.40
2018-05-03T20:25:01.045Z,96.10
2018-05-03T20:27:28.618Z,95.60
2018-05-03T20:29:54.834Z,95.70
2018-05-03T20:32:36.813Z,96.00
2018-05-03T20:35:03.031Z,96.10
2018-05-03T20:37:29.375Z,96.10
2018-05-03T20:39:56.163Z,93.90
2018-05-03T20:42:22.897Z,95.90
2018-05-03T20:44:50.330Z,97.10
2018-05-03T20:47:17.381Z,97.10
2018-05-03T20:49:44.282Z,97.50
2018-05-03T20:52:10.942Z,98.00
2018-05-03T20:54:37.845Z,98.40
2018-05-03T20:57:05.524Z,96.30
2018-05-03T20:59:32.938Z,97.30
2018-05-03T21:01:59.158Z,97.20
2018-05-03T21:04:25.415Z,98.70
2018-05-03T21:06:51.658Z,97.70
2018-05-03T21:09:17.876Z,99.00
2018-05-03T21:11:44.875Z,99.50
2018-05-03T21:14:12.764Z,99.30
2018-05-03T21:16:38.977Z,99.50
2018-05-03T21:19:05.939Z,99.60
2018-05-03T21:21:32.211Z,99.60
2018-05-03T21:23:59.105Z,98.80
2018-05-03T21:26:26.122Z,97.30
2018-05-03T21:28:52.319Z,97.40
2018-05-03T21:31:18.985Z,97.40
2018-05-03T21:33:45.229Z,97.60
2018-05-03T21:36:12.144Z,96.60
2018-05-03T21:38:38.682Z,98.10
2018-05-03T21:41:04.930Z,97.40
2018-05-03T21:43:32.585Z,97.30
2018-05-03T21:45:59.315Z,97.60
2018-05-03T21:48:26.730Z,97.30
2018-05-03T21:50:53.689Z,97.40
2018-05-03T21:53:20.575Z,98.90
2018-05-03T21:55:47.869Z,98.90
2018-05-03T21:58:14.682Z,99.00
2018-05-03T22:00:40.927Z,98.60
2018-05-03T22:03:07.129Z,99.90
2018-05-03T22:05:33.359Z,98.80
2018-05-03T22:07:59.569Z,99.90
2018-05-03T22:10:25.898Z,99.90
2018-05-03T22:12:52.755Z,99.90
2018-05-03T22:15:19.569Z,99.90
2018-05-03T22:17:45.782Z,98.50
2018-05-03T22:20:12.747Z,99.80
2018-05-03T22:22:39.466Z,99.80
2018-05-03T22:25:06.760Z,99.60
2018-05-03T22:27:32.987Z,99.60
2018-05-03T22:29:59.218Z,99.90
2018-05-03T22:32:25.458Z,99.90
2018-05-03T22:34:52.217Z,99.90
2018-05-03T22:37:18.440Z,99.90
2018-05-03T22:39:44.655Z,99.90
2018-05-03T22:42:11.250Z,99.90
2018-05-03T22:44:38.034Z,99.20
2018-05-03T22:47:05.448Z,99.90
2018-05-03T22:49:33.059Z,99.90
2018-05-03T22:52:00.714Z,99.80
2018-05-03T22:54:27.595Z,99.90
2018-05-03T22:56:53.810Z,99.90
2018-05-03T22:59:21.194Z,99.90
2018-05-03T23:01:47.418Z,99.90
2018-05-03T23:04:13.633Z,99.90
2018-05-03T23:06:40.629Z,99.90
2018-05-03T23:09:06.842Z,99.90
2018-05-03T23:11:33.142Z,99.90
2018-05-03T23:13:59.785Z,99.90
2018-05-03T23:16:26.754Z,99.90
2018-05-03T23:18:53.698Z,99.90
2018-05-03T23:21:21.090Z,99.90
2018-05-03T23:23:47.293Z,99.90
2018-05-03T23:26:14.590Z,99.90
2018-05-03T23:28:40.821Z,99.90
2018-05-03T23:31:07.362Z,99.90
2018-05-03T23:33:33.594Z,99.90
2018-05-03T23:35:59.802Z,99.90
2018-05-03T23:38:26.770Z,99.70
2018-05-03T23:40:52.979Z,99.90
2018-05-03T23:43:20.497Z,99.70
2018-05-03T23:45:47.229Z,99.60
2018-05-03T23:48:13.949Z,99.90
2018-05-03T23:50:40.599Z,99.90
2018-05-03T23:53:07.234Z,99.90
2018-05-03T23:55:34.069Z,99.90
2018-05-03T23:58:01.035Z,99.90
